sensor_id;sensor_type;location;lat;lon;timestamp;P1;durP1;ratioP1;P2;durP2;ratioP2
23044;SDS011;11690;51.716;23.066;2023-06-26T00:01:32;13.15;;;3.58;;
23044;SDS011;11690;51.716;23.066;2023-06-26T00:04:00;8.18;;;3.28;;
23044;SDS011;11690;51.716;23.066;2023-06-26T00:06:28;9.77;;;3.20;;
23044;SDS011;11690;51.716;23.066;2023-06-26T00:08:56;8.70;;;2.75;;
23044;SDS011;11690;51.716;23.066;2023-06-26T00:11:25;8.98;;;3.53;;
23044;SDS011;11690;51.716;23.066;2023-06-26T00:13:54;5.05;;;3.20;;
23044;SDS011;11690;51.716;23.066;2023-06-26T00:16:21;15.05;;;2.95;;
23044;SDS011;11690;51.716;23.066;2023-06-26T00:18:48;6.72;;;3.13;;
23044;SDS011;11690;51.716;23.066;2023-06-26T00:21:15;6.45;;;2.83;;
23044;SDS011;11690;51.716;23.066;2023-06-26T00:23:43;6.70;;;3.40;;
23044;SDS011;11690;51.716;23.066;2023-06-26T00:26:10;9.20;;;3.17;;
23044;SDS011;11690;51.716;23.066;2023-06-26T00:28:38;15.80;;;3.63;;
23044;SDS011;11690;51.716;23.066;2023-06-26T00:31:05;11.68;;;2.95;;
23044;SDS011;11690;51.716;23.066;2023-06-26T00:33:32;11.63;;;3.35;;
23044;SDS011;11690;51.716;23.066;2023-06-26T00:35:59;8.25;;;3.42;;
23044;SDS011;11690;51.716;23.066;2023-06-26T00:38:26;7.72;;;3.40;;
23044;SDS011;11690;51.716;23.066;2023-06-26T00:40:53;12.70;;;3.05;;
23044;SDS011;11690;51.716;23.066;2023-06-26T00:43:22;5.50;;;3.35;;
23044;SDS011;11690;51.716;23.066;2023-06-26T00:45:49;8.27;;;3.67;;
23044;SDS011;11690;51.716;23.066;2023-06-26T00:48:17;5.32;;;3.92;;
23044;SDS011;11690;51.716;23.066;2023-06-26T00:50:44;12.07;;;4.13;;
23044;SDS011;11690;51.716;23.066;2023-06-26T00:53:12;6.78;;;3.65;;
23044;SDS011;11690;51.716;23.066;2023-06-26T00:55:39;5.47;;;3.30;;
23044;SDS011;11690;51.716;23.066;2023-06-26T00:58:08;7.82;;;3.33;;
23044;SDS011;11690;51.716;23.066;2023-06-26T01:00:35;7.78;;;3.58;;
23044;SDS011;11690;51.716;23.066;2023-06-26T01:03:02;4.65;;;3.08;;
23044;SDS011;11690;51.716;23.066;2023-06-26T01:05:30;7.18;;;3.38;;
23044;SDS011;11690;51.716;23.066;2023-06-26T01:07:57;5.97;;;3.92;;
23044;SDS011;11690;51.716;23.066;2023-06-26T01:10:27;5.70;;;3.05;;
23044;SDS011;11690;51.716;23.066;2023-06-26T01:12:55;6.35;;;2.90;;
23044;SDS011;11690;51.716;23.066;2023-06-26T01:15:22;9.68;;;2.78;;
23044;SDS011;11690;51.716;23.066;2023-06-26T01:17:50;3.28;;;2.22;;
23044;SDS011;11690;51.716;23.066;2023-06-26T01:20:19;6.20;;;2.95;;
23044;SDS011;11690;51.716;23.066;2023-06-26T01:22:52;7.55;;;3.15;;
23044;SDS011;11690;51.716;23.066;2023-06-26T01:28:38;12.38;;;3.70;;
23044;SDS011;11690;51.716;23.066;2023-06-26T01:31:06;10.38;;;2.88;;
23044;SDS011;11690;51.716;23.066;2023-06-26T01:33:34;22.30;;;4.47;;
23044;SDS011;11690;51.716;23.066;2023-06-26T01:36:01;6.82;;;3.88;;
23044;SDS011;11690;51.716;23.066;2023-06-26T01:38:29;5.55;;;3.72;;
23044;SDS011;11690;51.716;23.066;2023-06-26T01:40:57;6.53;;;4.20;;
23044;SDS011;11690;51.716;23.066;2023-06-26T01:46:10;10.00;;;3.55;;
23044;SDS011;11690;51.716;23.066;2023-06-26T01:51:57;5.15;;;3.22;;
23044;SDS011;11690;51.716;23.066;2023-06-26T01:54:29;6.22;;;3.78;;
23044;SDS011;11690;51.716;23.066;2023-06-26T01:56:57;6.80;;;3.67;;
23044;SDS011;11690;51.716;23.066;2023-06-26T01:59:25;7.57;;;3.88;;
23044;SDS011;11690;51.716;23.066;2023-06-26T02:01:53;5.05;;;3.47;;
23044;SDS011;11690;51.716;23.066;2023-06-26T02:04:21;10.45;;;4.18;;
23044;SDS011;11690;51.716;23.066;2023-06-26T02:06:48;4.78;;;3.15;;
23044;SDS011;11690;51.716;23.066;2023-06-26T02:09:15;5.60;;;3.40;;
23044;SDS011;11690;51.716;23.066;2023-06-26T02:11:43;10.18;;;3.33;;
23044;SDS011;11690;51.716;23.066;2023-06-26T02:14:10;5.60;;;3.50;;
23044;SDS011;11690;51.716;23.066;2023-06-26T02:16:39;5.38;;;3.10;;
23044;SDS011;11690;51.716;23.066;2023-06-26T02:19:06;12.35;;;3.63;;
23044;SDS011;11690;51.716;23.066;2023-06-26T02:21:35;11.23;;;3.10;;
23044;SDS011;11690;51.716;23.066;2023-06-26T02:24:02;7.28;;;2.83;;
23044;SDS011;11690;51.716;23.066;2023-06-26T02:26:32;12.75;;;2.95;;
23044;SDS011;11690;51.716;23.066;2023-06-26T02:28:59;8.20;;;2.70;;
23044;SDS011;11690;51.716;23.066;2023-06-26T02:31:27;11.43;;;3.17;;
23044;SDS011;11690;51.716;23.066;2023-06-26T02:33:55;10.32;;;2.90;;
23044;SDS011;11690;51.716;23.066;2023-06-26T02:36:22;9.88;;;2.92;;
23044;SDS011;11690;51.716;23.066;2023-06-26T02:38:49;10.30;;;3.15;;
23044;SDS011;11690;51.716;23.066;2023-06-26T02:41:16;14.70;;;2.75;;
23044;SDS011;11690;51.716;23.066;2023-06-26T02:43:44;6.00;;;2.83;;
23044;SDS011;11690;51.716;23.066;2023-06-26T02:46:12;10.88;;;3.35;;
23044;SDS011;11690;51.716;23.066;2023-06-26T02:48:39;10.63;;;2.92;;
23044;SDS011;11690;51.716;23.066;2023-06-26T02:51:07;15.02;;;3.30;;
23044;SDS011;11690;51.716;23.066;2023-06-26T02:53:34;7.35;;;3.38;;
23044;SDS011;11690;51.716;23.066;2023-06-26T02:56:01;8.60;;;2.92;;
23044;SDS011;11690;51.716;23.066;2023-06-26T02:58:29;5.60;;;3.00;;
23044;SDS011;11690;51.716;23.066;2023-06-26T03:00:56;8.60;;;3.33;;
23044;SDS011;11690;51.716;23.066;2023-06-26T03:03:23;5.90;;;3.15;;
23044;SDS011;11690;51.716;23.066;2023-06-26T03:05:51;5.22;;;2.97;;
23044;SDS011;11690;51.716;23.066;2023-06-26T03:08:18;4.78;;;3.00;;
23044;SDS011;11690;51.716;23.066;2023-06-26T03:10:45;6.43;;;2.97;;
23044;SDS011;11690;51.716;23.066;2023-06-26T03:13:12;5.90;;;2.95;;
23044;SDS011;11690;51.716;23.066;2023-06-26T03:15:41;8.90;;;3.22;;
23044;SDS011;11690;51.716;23.066;2023-06-26T03:18:08;6.07;;;3.25;;
23044;SDS011;11690;51.716;23.066;2023-06-26T03:20:36;5.80;;;4.10;;
23044;SDS011;11690;51.716;23.066;2023-06-26T03:23:03;8.38;;;4.20;;
23044;SDS011;11690;51.716;23.066;2023-06-26T03:25:31;13.50;;;4.32;;
23044;SDS011;11690;51.716;23.066;2023-06-26T03:28:16;6.43;;;4.15;;
23044;SDS011;11690;51.716;23.066;2023-06-26T03:30:44;6.93;;;4.47;;
23044;SDS011;11690;51.716;23.066;2023-06-26T03:33:11;8.40;;;4.78;;
23044;SDS011;11690;51.716;23.066;2023-06-26T03:35:38;9.65;;;4.57;;
23044;SDS011;11690;51.716;23.066;2023-06-26T03:38:09;11.20;;;5.30;;
23044;SDS011;11690;51.716;23.066;2023-06-26T03:40:36;7.78;;;4.75;;
23044;SDS011;11690;51.716;23.066;2023-06-26T03:43:04;8.70;;;4.50;;
23044;SDS011;11690;51.716;23.066;2023-06-26T03:45:42;8.77;;;5.28;;
23044;SDS011;11690;51.716;23.066;2023-06-26T03:48:09;9.32;;;4.85;;
23044;SDS011;11690;51.716;23.066;2023-06-26T03:50:37;13.55;;;5.60;;
23044;SDS011;11690;51.716;23.066;2023-06-26T03:53:04;9.02;;;5.47;;
23044;SDS011;11690;51.716;23.066;2023-06-26T03:55:32;12.05;;;5.53;;
23044;SDS011;11690;51.716;23.066;2023-06-26T03:57:59;10.32;;;5.88;;
23044;SDS011;11690;51.716;23.066;2023-06-26T04:00:27;14.77;;;5.63;;
23044;SDS011;11690;51.716;23.066;2023-06-26T04:02:54;14.85;;;6.28;;
23044;SDS011;11690;51.716;23.066;2023-06-26T04:05:23;10.25;;;5.60;;
23044;SDS011;11690;51.716;23.066;2023-06-26T04:07:50;13.57;;;6.80;;
23044;SDS011;11690;51.716;23.066;2023-06-26T04:10:18;14.15;;;7.10;;
23044;SDS011;11690;51.716;23.066;2023-06-26T04:12:47;18.45;;;7.47;;
23044;SDS011;11690;51.716;23.066;2023-06-26T04:15:15;15.75;;;7.72;;
23044;SDS011;11690;51.716;23.066;2023-06-26T04:17:42;16.25;;;7.85;;
23044;SDS011;11690;51.716;23.066;2023-06-26T04:20:09;12.77;;;7.63;;
23044;SDS011;11690;51.716;23.066;2023-06-26T04:22:36;13.55;;;6.70;;
23044;SDS011;11690;51.716;23.066;2023-06-26T04:25:04;14.32;;;7.53;;
23044;SDS011;11690;51.716;23.066;2023-06-26T04:27:31;13.40;;;7.47;;
23044;SDS011;11690;51.716;23.066;2023-06-26T04:30:02;12.88;;;6.88;;
23044;SDS011;11690;51.716;23.066;2023-06-26T04:32:29;13.93;;;6.70;;
23044;SDS011;11690;51.716;23.066;2023-06-26T04:34:56;15.63;;;7.30;;
23044;SDS011;11690;51.716;23.066;2023-06-26T04:37:23;11.52;;;6.90;;
23044;SDS011;11690;51.716;23.066;2023-06-26T04:39:51;12.27;;;7.50;;
23044;SDS011;11690;51.716;23.066;2023-06-26T04:42:18;12.20;;;7.65;;
23044;SDS011;11690;51.716;23.066;2023-06-26T04:44:48;11.00;;;7.30;;
23044;SDS011;11690;51.716;23.066;2023-06-26T04:47:15;11.60;;;7.38;;
23044;SDS011;11690;51.716;23.066;2023-06-26T04:49:43;13.05;;;6.70;;
23044;SDS011;11690;51.716;23.066;2023-06-26T04:52:13;14.55;;;7.13;;
23044;SDS011;11690;51.716;23.066;2023-06-26T04:54:41;9.00;;;5.80;;
23044;SDS011;11690;51.716;23.066;2023-06-26T04:57:08;10.35;;;5.75;;
23044;SDS011;11690;51.716;23.066;2023-06-26T04:59:39;10.07;;;6.13;;
23044;SDS011;11690;51.716;23.066;2023-06-26T05:02:05;8.18;;;5.97;;
23044;SDS011;11690;51.716;23.066;2023-06-26T05:04:33;9.73;;;4.93;;
23044;SDS011;11690;51.716;23.066;2023-06-26T05:07:00;13.27;;;6.28;;
23044;SDS011;11690;51.716;23.066;2023-06-26T05:09:27;9.45;;;5.38;;
23044;SDS011;11690;51.716;23.066;2023-06-26T05:11:54;7.53;;;4.82;;
23044;SDS011;11690;51.716;23.066;2023-06-26T05:14:22;11.85;;;4.57;;
23044;SDS011;11690;51.716;23.066;2023-06-26T05:16:51;9.70;;;4.57;;
23044;SDS011;11690;51.716;23.066;2023-06-26T05:19:18;7.15;;;4.50;;
23044;SDS011;11690;51.716;23.066;2023-06-26T05:21:45;7.03;;;4.35;;
23044;SDS011;11690;51.716;23.066;2023-06-26T05:24:13;9.07;;;4.70;;
23044;SDS011;11690;51.716;23.066;2023-06-26T05:26:42;7.43;;;3.92;;
23044;SDS011;11690;51.716;23.066;2023-06-26T05:29:10;6.95;;;4.07;;
23044;SDS011;11690;51.716;23.066;2023-06-26T05:31:39;4.35;;;3.70;;
23044;SDS011;11690;51.716;23.066;2023-06-26T05:34:08;5.90;;;3.42;;
23044;SDS011;11690;51.716;23.066;2023-06-26T05:36:36;6.07;;;3.50;;
23044;SDS011;11690;51.716;23.066;2023-06-26T05:39:05;4.57;;;3.03;;
23044;SDS011;11690;51.716;23.066;2023-06-26T05:41:33;4.78;;;2.80;;
23044;SDS011;11690;51.716;23.066;2023-06-26T05:44:00;7.18;;;2.78;;
23044;SDS011;11690;51.716;23.066;2023-06-26T05:46:27;4.78;;;2.53;;
23044;SDS011;11690;51.716;23.066;2023-06-26T05:48:54;3.25;;;2.13;;
23044;SDS011;11690;51.716;23.066;2023-06-26T05:51:21;3.08;;;1.95;;
23044;SDS011;11690;51.716;23.066;2023-06-26T05:53:49;3.72;;;2.38;;
23044;SDS011;11690;51.716;23.066;2023-06-26T05:56:16;2.88;;;2.10;;
23044;SDS011;11690;51.716;23.066;2023-06-26T05:58:46;3.38;;;1.85;;
23044;SDS011;11690;51.716;23.066;2023-06-26T06:01:13;3.03;;;2.13;;
23044;SDS011;11690;51.716;23.066;2023-06-26T06:03:40;2.67;;;2.00;;
23044;SDS011;11690;51.716;23.066;2023-06-26T06:06:08;3.83;;;2.35;;
23044;SDS011;11690;51.716;23.066;2023-06-26T06:08:35;3.50;;;1.80;;
23044;SDS011;11690;51.716;23.066;2023-06-26T06:11:02;2.83;;;2.15;;
23044;SDS011;11690;51.716;23.066;2023-06-26T06:13:29;5.45;;;2.13;;
23044;SDS011;11690;51.716;23.066;2023-06-26T06:15:56;3.38;;;1.92;;
23044;SDS011;11690;51.716;23.066;2023-06-26T06:18:23;3.50;;;2.10;;
23044;SDS011;11690;51.716;23.066;2023-06-26T06:20:50;2.42;;;1.67;;
23044;SDS011;11690;51.716;23.066;2023-06-26T06:23:18;3.30;;;1.63;;
23044;SDS011;11690;51.716;23.066;2023-06-26T06:25:45;4.35;;;1.98;;
23044;SDS011;11690;51.716;23.066;2023-06-26T06:28:12;4.88;;;2.10;;
23044;SDS011;11690;51.716;23.066;2023-06-26T06:30:42;3.00;;;2.10;;
23044;SDS011;11690;51.716;23.066;2023-06-26T06:33:13;4.68;;;2.30;;
23044;SDS011;11690;51.716;23.066;2023-06-26T06:35:40;3.47;;;1.98;;
23044;SDS011;11690;51.716;23.066;2023-06-26T06:38:07;2.72;;;1.63;;
23044;SDS011;11690;51.716;23.066;2023-06-26T06:40:34;3.88;;;1.67;;
23044;SDS011;11690;51.716;23.066;2023-06-26T06:43:02;3.92;;;2.35;;
23044;SDS011;11690;51.716;23.066;2023-06-26T06:45:29;3.00;;;2.00;;
23044;SDS011;11690;51.716;23.066;2023-06-26T06:47:56;3.67;;;2.08;;
23044;SDS011;11690;51.716;23.066;2023-06-26T06:50:23;2.85;;;1.67;;
23044;SDS011;11690;51.716;23.066;2023-06-26T06:52:50;6.60;;;1.98;;
23044;SDS011;11690;51.716;23.066;2023-06-26T06:55:17;3.10;;;1.90;;
23044;SDS011;11690;51.716;23.066;2023-06-26T06:57:45;2.55;;;1.67;;
23044;SDS011;11690;51.716;23.066;2023-06-26T07:00:12;2.55;;;1.55;;
23044;SDS011;11690;51.716;23.066;2023-06-26T07:02:43;6.18;;;2.28;;
23044;SDS011;11690;51.716;23.066;2023-06-26T07:05:12;7.35;;;1.92;;
23044;SDS011;11690;51.716;23.066;2023-06-26T07:07:40;2.65;;;1.83;;
23044;SDS011;11690;51.716;23.066;2023-06-26T07:10:11;15.85;;;2.42;;
23044;SDS011;11690;51.716;23.066;2023-06-26T07:12:40;2.88;;;2.22;;
23044;SDS011;11690;51.716;23.066;2023-06-26T07:15:07;4.63;;;2.40;;
23044;SDS011;11690;51.716;23.066;2023-06-26T07:17:34;2.33;;;1.90;;
23044;SDS011;11690;51.716;23.066;2023-06-26T07:20:02;2.60;;;1.83;;
23044;SDS011;11690;51.716;23.066;2023-06-26T07:22:34;2.20;;;1.83;;
23044;SDS011;11690;51.716;23.066;2023-06-26T07:25:02;3.10;;;1.88;;
23044;SDS011;11690;51.716;23.066;2023-06-26T07:27:30;3.20;;;2.25;;
23044;SDS011;11690;51.716;23.066;2023-06-26T07:29:57;3.05;;;1.95;;
23044;SDS011;11690;51.716;23.066;2023-06-26T07:32:25;2.90;;;2.00;;
23044;SDS011;11690;51.716;23.066;2023-06-26T07:34:52;2.75;;;1.92;;
23044;SDS011;11690;51.716;23.066;2023-06-26T07:37:19;4.47;;;2.20;;
23044;SDS011;11690;51.716;23.066;2023-06-26T07:39:47;2.85;;;1.90;;
23044;SDS011;11690;51.716;23.066;2023-06-26T07:42:14;2.50;;;1.70;;
23044;SDS011;11690;51.716;23.066;2023-06-26T07:44:41;1.98;;;1.40;;
23044;SDS011;11690;51.716;23.066;2023-06-26T07:47:09;2.83;;;1.65;;
23044;SDS011;11690;51.716;23.066;2023-06-26T07:49:36;2.95;;;1.85;;
23044;SDS011;11690;51.716;23.066;2023-06-26T07:52:06;3.97;;;1.70;;
23044;SDS011;11690;51.716;23.066;2023-06-26T07:54:33;2.95;;;1.75;;
23044;SDS011;11690;51.716;23.066;2023-06-26T07:57:03;3.28;;;1.70;;
23044;SDS011;11690;51.716;23.066;2023-06-26T07:59:33;2.47;;;1.92;;
23044;SDS011;11690;51.716;23.066;2023-06-26T08:02:00;2.03;;;1.80;;
23044;SDS011;11690;51.716;23.066;2023-06-26T08:04:29;4.70;;;1.70;;
23044;SDS011;11690;51.716;23.066;2023-06-26T08:06:59;3.15;;;2.00;;
23044;SDS011;11690;51.716;23.066;2023-06-26T08:09:27;1.75;;;1.38;;
23044;SDS011;11690;51.716;23.066;2023-06-26T08:11:56;1.73;;;1.20;;
23044;SDS011;11690;51.716;23.066;2023-06-26T08:14:24;2.25;;;1.50;;
23044;SDS011;11690;51.716;23.066;2023-06-26T08:16:51;1.30;;;1.20;;
23044;SDS011;11690;51.716;23.066;2023-06-26T08:19:19;1.85;;;1.30;;
23044;SDS011;11690;51.716;23.066;2023-06-26T08:21:46;2.35;;;1.50;;
23044;SDS011;11690;51.716;23.066;2023-06-26T08:24:13;2.38;;;1.38;;
23044;SDS011;11690;51.716;23.066;2023-06-26T08:26:44;1.83;;;1.30;;
23044;SDS011;11690;51.716;23.066;2023-06-26T08:29:12;2.35;;;1.75;;
23044;SDS011;11690;51.716;23.066;2023-06-26T08:31:39;1.75;;;1.38;;
23044;SDS011;11690;51.716;23.066;2023-06-26T08:34:07;2.88;;;1.55;;
23044;SDS011;11690;51.716;23.066;2023-06-26T08:36:35;1.70;;;1.20;;
23044;SDS011;11690;51.716;23.066;2023-06-26T08:39:02;2.67;;;1.60;;
23044;SDS011;11690;51.716;23.066;2023-06-26T08:41:30;3.53;;;2.58;;
23044;SDS011;11690;51.716;23.066;2023-06-26T08:43:57;2.75;;;1.60;;
23044;SDS011;11690;51.716;23.066;2023-06-26T08:46:24;1.77;;;1.13;;
23044;SDS011;11690;51.716;23.066;2023-06-26T08:48:54;2.13;;;1.17;;
23044;SDS011;11690;51.716;23.066;2023-06-26T08:51:27;2.00;;;1.23;;
23044;SDS011;11690;51.716;23.066;2023-06-26T08:53:59;1.77;;;1.13;;
23044;SDS011;11690;51.716;23.066;2023-06-26T08:56:28;1.75;;;1.10;;
23044;SDS011;11690;51.716;23.066;2023-06-26T08:58:59;3.03;;;1.25;;
23044;SDS011;11690;51.716;23.066;2023-06-26T09:01:27;2.83;;;1.25;;
23044;SDS011;11690;51.716;23.066;2023-06-26T09:03:54;3.58;;;1.80;;
23044;SDS011;11690;51.716;23.066;2023-06-26T09:06:22;2.40;;;1.55;;
23044;SDS011;11690;51.716;23.066;2023-06-26T09:08:49;3.10;;;1.70;;
23044;SDS011;11690;51.716;23.066;2023-06-26T09:11:16;1.85;;;1.40;;
23044;SDS011;11690;51.716;23.066;2023-06-26T09:13:43;2.22;;;1.40;;
23044;SDS011;11690;51.716;23.066;2023-06-26T09:16:11;1.63;;;1.30;;
23044;SDS011;11690;51.716;23.066;2023-06-26T09:18:40;1.42;;;1.17;;
23044;SDS011;11690;51.716;23.066;2023-06-26T09:21:08;2.45;;;1.48;;
23044;SDS011;11690;51.716;23.066;2023-06-26T09:23:36;4.55;;;1.58;;
23044;SDS011;11690;51.716;23.066;2023-06-26T09:26:04;3.80;;;1.30;;
23044;SDS011;11690;51.716;23.066;2023-06-26T09:28:32;1.88;;;1.25;;
23044;SDS011;11690;51.716;23.066;2023-06-26T09:31:04;1.95;;;1.50;;
23044;SDS011;11690;51.716;23.066;2023-06-26T09:33:34;3.03;;;1.45;;
23044;SDS011;11690;51.716;23.066;2023-06-26T09:36:07;1.33;;;1.20;;
23044;SDS011;11690;51.716;23.066;2023-06-26T09:38:36;1.42;;;1.33;;
23044;SDS011;11690;51.716;23.066;2023-06-26T09:41:03;1.75;;;1.17;;
23044;SDS011;11690;51.716;23.066;2023-06-26T09:43:31;2.63;;;1.65;;
23044;SDS011;11690;51.716;23.066;2023-06-26T09:46:00;1.50;;;1.15;;
23044;SDS011;11690;51.716;23.066;2023-06-26T09:48:27;1.92;;;1.30;;
23044;SDS011;11690;51.716;23.066;2023-06-26T09:50:55;3.75;;;1.45;;
23044;SDS011;11690;51.716;23.066;2023-06-26T09:53:39;1.75;;;1.13;;
23044;SDS011;11690;51.716;23.066;2023-06-26T09:56:15;2.50;;;1.70;;
23044;SDS011;11690;51.716;23.066;2023-06-26T09:58:44;3.47;;;1.45;;
23044;SDS011;11690;51.716;23.066;2023-06-26T10:01:11;1.95;;;1.52;;
23044;SDS011;11690;51.716;23.066;2023-06-26T10:03:39;2.50;;;1.15;;
23044;SDS011;11690;51.716;23.066;2023-06-26T10:06:07;2.10;;;1.55;;
23044;SDS011;11690;51.716;23.066;2023-06-26T10:08:36;1.65;;;1.30;;
23044;SDS011;11690;51.716;23.066;2023-06-26T10:11:04;5.60;;;1.73;;
23044;SDS011;11690;51.716;23.066;2023-06-26T10:13:34;2.65;;;1.35;;
23044;SDS011;11690;51.716;23.066;2023-06-26T10:16:02;2.70;;;1.60;;
23044;SDS011;11690;51.716;23.066;2023-06-26T10:18:29;2.72;;;1.33;;
23044;SDS011;11690;51.716;23.066;2023-06-26T10:20:58;2.53;;;1.40;;
23044;SDS011;11690;51.716;23.066;2023-06-26T10:23:26;2.65;;;1.38;;
23044;SDS011;11690;51.716;23.066;2023-06-26T10:25:55;2.15;;;1.40;;
23044;SDS011;11690;51.716;23.066;2023-06-26T10:28:22;1.77;;;1.35;;
23044;SDS011;11690;51.716;23.066;2023-06-26T10:30:50;2.53;;;1.60;;
23044;SDS011;11690;51.716;23.066;2023-06-26T10:33:19;2.05;;;1.55;;
23044;SDS011;11690;51.716;23.066;2023-06-26T10:35:46;2.05;;;1.63;;
23044;SDS011;11690;51.716;23.066;2023-06-26T10:38:14;2.47;;;1.60;;
23044;SDS011;11690;51.716;23.066;2023-06-26T10:40:41;1.85;;;1.30;;
23044;SDS011;11690;51.716;23.066;2023-06-26T10:43:12;1.65;;;1.10;;
23044;SDS011;11690;51.716;23.066;2023-06-26T10:45:43;1.70;;;1.40;;
23044;SDS011;11690;51.716;23.066;2023-06-26T10:48:15;2.03;;;1.40;;
23044;SDS011;11690;51.716;23.066;2023-06-26T10:50:46;2.63;;;1.70;;
23044;SDS011;11690;51.716;23.066;2023-06-26T10:53:21;2.25;;;1.67;;
23044;SDS011;11690;51.716;23.066;2023-06-26T10:56:00;2.40;;;1.45;;
23044;SDS011;11690;51.716;23.066;2023-06-26T11:01:20;2.67;;;1.60;;
23044;SDS011;11690;51.716;23.066;2023-06-26T11:06:25;3.42;;;1.60;;
23044;SDS011;11690;51.716;23.066;2023-06-26T11:12:13;2.53;;;1.40;;
23044;SDS011;11690;51.716;23.066;2023-06-26T11:14:26;1.52;;;1.38;;
23044;SDS011;11690;51.716;23.066;2023-06-26T11:16:57;1.67;;;1.40;;
23044;SDS011;11690;51.716;23.066;2023-06-26T11:19:25;2.05;;;1.55;;
23044;SDS011;11690;51.716;23.066;2023-06-26T11:21:58;2.45;;;1.63;;
23044;SDS011;11690;51.716;23.066;2023-06-26T11:24:27;2.60;;;1.73;;
23044;SDS011;11690;51.716;23.066;2023-06-26T11:26:54;2.30;;;1.63;;
23044;SDS011;11690;51.716;23.066;2023-06-26T11:29:26;2.00;;;1.60;;
23044;SDS011;11690;51.716;23.066;2023-06-26T11:31:58;2.20;;;1.63;;
23044;SDS011;11690;51.716;23.066;2023-06-26T11:34:31;2.70;;;1.40;;
23044;SDS011;11690;51.716;23.066;2023-06-26T11:36:58;2.25;;;1.80;;
23044;SDS011;11690;51.716;23.066;2023-06-26T11:39:28;3.03;;;1.42;;
23044;SDS011;11690;51.716;23.066;2023-06-26T11:41:56;1.85;;;1.50;;
23044;SDS011;11690;51.716;23.066;2023-06-26T11:44:24;2.05;;;1.58;;
23044;SDS011;11690;51.716;23.066;2023-06-26T11:46:51;2.17;;;1.52;;
23044;SDS011;11690;51.716;23.066;2023-06-26T11:49:19;1.75;;;1.38;;
23044;SDS011;11690;51.716;23.066;2023-06-26T11:51:49;4.13;;;1.65;;
23044;SDS011;11690;51.716;23.066;2023-06-26T11:54:23;4.07;;;1.70;;
23044;SDS011;11690;51.716;23.066;2023-06-26T11:56:57;3.03;;;1.60;;
23044;SDS011;11690;51.716;23.066;2023-06-26T11:59:43;2.30;;;1.73;;
23044;SDS011;11690;51.716;23.066;2023-06-26T12:02:12;3.00;;;1.70;;
23044;SDS011;11690;51.716;23.066;2023-06-26T12:04:42;2.30;;;1.60;;
23044;SDS011;11690;51.716;23.066;2023-06-26T12:07:10;2.00;;;1.67;;
23044;SDS011;11690;51.716;23.066;2023-06-26T12:09:45;2.78;;;2.05;;
23044;SDS011;11690;51.716;23.066;2023-06-26T12:12:14;2.10;;;1.42;;
23044;SDS011;11690;51.716;23.066;2023-06-26T12:14:43;8.40;;;1.77;;
23044;SDS011;11690;51.716;23.066;2023-06-26T12:17:11;4.53;;;1.85;;
23044;SDS011;11690;51.716;23.066;2023-06-26T12:19:44;3.45;;;1.65;;
23044;SDS011;11690;51.716;23.066;2023-06-26T12:22:14;5.22;;;1.88;;
23044;SDS011;11690;51.716;23.066;2023-06-26T12:24:42;4.63;;;2.20;;
23044;SDS011;11690;51.716;23.066;2023-06-26T12:27:10;2.25;;;1.85;;
23044;SDS011;11690;51.716;23.066;2023-06-26T12:29:39;2.95;;;1.73;;
23044;SDS011;11690;51.716;23.066;2023-06-26T12:32:08;3.00;;;1.77;;
23044;SDS011;11690;51.716;23.066;2023-06-26T12:34:37;3.28;;;2.03;;
23044;SDS011;11690;51.716;23.066;2023-06-26T12:37:06;2.83;;;1.70;;
23044;SDS011;11690;51.716;23.066;2023-06-26T12:39:51;3.40;;;1.63;;
23044;SDS011;11690;51.716;23.066;2023-06-26T12:42:20;2.63;;;1.70;;
23044;SDS011;11690;51.716;23.066;2023-06-26T12:44:49;2.17;;;1.73;;
23044;SDS011;11690;51.716;23.066;2023-06-26T12:47:17;3.47;;;1.55;;
23044;SDS011;11690;51.716;23.066;2023-06-26T12:49:49;1.80;;;1.58;;
23044;SDS011;11690;51.716;23.066;2023-06-26T12:52:17;2.30;;;1.75;;
23044;SDS011;11690;51.716;23.066;2023-06-26T12:54:51;5.05;;;1.73;;
23044;SDS011;11690;51.716;23.066;2023-06-26T12:57:19;1.73;;;1.48;;
23044;SDS011;11690;51.716;23.066;2023-06-26T12:59:46;2.88;;;2.00;;
23044;SDS011;11690;51.716;23.066;2023-06-26T13:02:14;3.13;;;2.03;;
23044;SDS011;11690;51.716;23.066;2023-06-26T13:04:41;2.83;;;1.73;;
23044;SDS011;11690;51.716;23.066;2023-06-26T13:07:11;2.60;;;1.70;;
23044;SDS011;11690;51.716;23.066;2023-06-26T13:09:39;2.40;;;1.40;;
23044;SDS011;11690;51.716;23.066;2023-06-26T13:12:07;4.57;;;1.50;;
23044;SDS011;11690;51.716;23.066;2023-06-26T13:14:35;2.60;;;1.90;;
23044;SDS011;11690;51.716;23.066;2023-06-26T13:17:02;3.63;;;1.73;;
23044;SDS011;11690;51.716;23.066;2023-06-26T13:19:35;2.53;;;1.73;;
23044;SDS011;11690;51.716;23.066;2023-06-26T13:22:02;2.22;;;1.45;;
23044;SDS011;11690;51.716;23.066;2023-06-26T13:24:30;4.00;;;1.92;;
23044;SDS011;11690;51.716;23.066;2023-06-26T13:26:57;3.22;;;1.73;;
23044;SDS011;11690;51.716;23.066;2023-06-26T13:29:24;2.95;;;1.83;;
23044;SDS011;11690;51.716;23.066;2023-06-26T13:31:52;3.45;;;1.70;;
23044;SDS011;11690;51.716;23.066;2023-06-26T13:34:20;3.28;;;1.70;;
23044;SDS011;11690;51.716;23.066;2023-06-26T13:36:48;2.60;;;1.77;;
23044;SDS011;11690;51.716;23.066;2023-06-26T13:39:16;1.90;;;1.60;;
23044;SDS011;11690;51.716;23.066;2023-06-26T13:41:43;2.97;;;1.80;;
23044;SDS011;11690;51.716;23.066;2023-06-26T13:44:11;2.25;;;1.60;;
23044;SDS011;11690;51.716;23.066;2023-06-26T13:46:54;2.90;;;2.00;;
23044;SDS011;11690;51.716;23.066;2023-06-26T13:49:22;2.67;;;1.80;;
23044;SDS011;11690;51.716;23.066;2023-06-26T13:51:49;2.88;;;2.10;;
23044;SDS011;11690;51.716;23.066;2023-06-26T13:54:16;3.22;;;2.03;;
23044;SDS011;11690;51.716;23.066;2023-06-26T13:56:45;3.65;;;2.33;;
23044;SDS011;11690;51.716;23.066;2023-06-26T13:59:12;2.65;;;1.95;;
23044;SDS011;11690;51.716;23.066;2023-06-26T14:01:39;3.72;;;2.30;;
23044;SDS011;11690;51.716;23.066;2023-06-26T14:04:09;3.17;;;2.25;;
23044;SDS011;11690;51.716;23.066;2023-06-26T14:06:36;6.38;;;2.58;;
23044;SDS011;11690;51.716;23.066;2023-06-26T14:09:04;2.70;;;1.98;;
23044;SDS011;11690;51.716;23.066;2023-06-26T14:11:31;2.55;;;1.75;;
23044;SDS011;11690;51.716;23.066;2023-06-26T14:13:59;2.97;;;1.70;;
23044;SDS011;11690;51.716;23.066;2023-06-26T14:16:26;2.20;;;1.77;;
23044;SDS011;11690;51.716;23.066;2023-06-26T14:18:56;3.25;;;2.13;;
23044;SDS011;11690;51.716;23.066;2023-06-26T14:21:23;4.38;;;2.42;;
23044;SDS011;11690;51.716;23.066;2023-06-26T14:23:50;3.70;;;2.42;;
23044;SDS011;11690;51.716;23.066;2023-06-26T14:26:17;3.13;;;1.92;;
23044;SDS011;11690;51.716;23.066;2023-06-26T14:28:45;3.15;;;2.13;;
23044;SDS011;11690;51.716;23.066;2023-06-26T14:31:12;4.22;;;2.20;;
23044;SDS011;11690;51.716;23.066;2023-06-26T14:33:39;2.95;;;2.00;;
23044;SDS011;11690;51.716;23.066;2023-06-26T14:36:06;3.50;;;2.38;;
23044;SDS011;11690;51.716;23.066;2023-06-26T14:38:34;4.15;;;2.05;;
23044;SDS011;11690;51.716;23.066;2023-06-26T14:41:00;8.38;;;2.10;;
23044;SDS011;11690;51.716;23.066;2023-06-26T14:43:28;2.90;;;2.08;;
23044;SDS011;11690;51.716;23.066;2023-06-26T14:45:56;3.30;;;1.75;;
23044;SDS011;11690;51.716;23.066;2023-06-26T14:48:24;3.67;;;2.33;;
23044;SDS011;11690;51.716;23.066;2023-06-26T14:50:50;4.05;;;2.10;;
23044;SDS011;11690;51.716;23.066;2023-06-26T14:53:18;7.18;;;2.63;;
23044;SDS011;11690;51.716;23.066;2023-06-26T14:55:45;2.15;;;1.85;;
23044;SDS011;11690;51.716;23.066;2023-06-26T14:58:12;3.20;;;2.13;;